createdAt,value
2018-09-11T00:00:53.047Z,51.61
2018-09-11T00:03:21.609Z,51.32
2018-09-11T00:05:50.207Z,51.35
2018-09-11T00:08:18.863Z,51.47
2018-09-11T00:10:47.419Z,51.11
2018-09-11T00:13:15.979Z,51.02
2018-09-11T00:15:44.636Z,51.13
2018-09-11T00:18:13.184Z,51.63
2018-09-11T00:20:41.742Z,51.51
2018-09-11T00:23:10.843Z,51.39
2018-09-11T00:25:39.395Z,51.92
2018-09-11T00:28:08.059Z,51.99
2018-09-11T00:30:36.682Z,51.83
2018-09-11T00:33:05.267Z,51.76
2018-09-11T00:35:33.812Z,52.17
2018-09-11T00:38:02.491Z,51.93
2018-09-11T00:40:31.044Z,52.08
2018-09-11T00:42:59.636Z,51.89
2018-09-11T00:45:28.232Z,51.90
2018-09-11T00:47:56.791Z,51.99
2018-09-11T00:50:25.344Z,51.84
2018-09-11T00:52:54.342Z,51.87
2018-09-11T00:55:22.895Z,51.98
2018-09-11T00:57:51.927Z,51.95
2018-09-11T01:00:20.708Z,52.22
2018-09-11T01:02:49.368Z,52.42
2018-09-11T01:05:17.919Z,52.33
2018-09-11T01:07:47.286Z,52.58
2018-09-11T01:10:15.858Z,52.89
2018-09-11T01:12:44.424Z,53.13
2018-09-11T01:15:13.347Z,53.00
2018-09-11T01:17:41.952Z,52.92
2018-09-11T01:20:10.547Z,52.87
2018-09-11T01:22:39.148Z,53.43
2018-09-11T01:25:07.730Z,53.28
2018-09-11T01:27:36.285Z,52.78
2018-09-11T01:30:05.344Z,52.79
2018-09-11T01:32:34.129Z,52.76
2018-09-11T01:35:02.682Z,52.22
2018-09-11T01:37:31.283Z,52.87
2018-09-11T01:39:59.836Z,52.72
2018-09-11T01:42:28.395Z,52.54
2018-09-11T01:44:57.288Z,53.04
2018-09-11T01:47:25.881Z,53.03
2018-09-11T01:49:54.406Z,53.21
2018-09-11T01:52:23.243Z,53.83
2018-09-11T01:54:51.798Z,53.27
2018-09-11T01:57:20.363Z,53.28
2018-09-11T01:59:49.298Z,53.37
2018-09-11T02:02:17.868Z,52.93
2018-09-11T02:04:46.424Z,53.10
2018-09-11T02:07:15.866Z,53.61
2018-09-11T02:09:44.425Z,53.17
2018-09-11T02:12:13.017Z,53.97
2018-09-11T02:14:41.924Z,53.87
2018-09-11T02:17:10.480Z,53.96
2018-09-11T02:19:39.058Z,53.94
2018-09-11T02:22:08.191Z,54.11
2018-09-11T02:24:36.828Z,54.33
2018-09-11T02:27:05.423Z,54.31
2018-09-11T02:29:34.087Z,54.05
2018-09-11T02:32:02.656Z,54.30
2018-09-11T02:34:31.203Z,54.48
2018-09-11T02:37:00.112Z,55.14
2018-09-11T02:39:29.355Z,55.35
2018-09-11T02:41:57.915Z,55.04
2018-09-11T02:44:26.499Z,55.40
2018-09-11T02:46:55.052Z,55.72
2018-09-11T02:49:23.608Z,54.96
2018-09-11T02:51:52.431Z,55.16
2018-09-11T02:54:20.984Z,55.19
2018-09-11T02:56:49.540Z,55.30
2018-09-11T02:59:18.268Z,55.26
2018-09-11T03:01:46.839Z,55.29
2018-09-11T03:04:17.536Z,55.54
2018-09-11T03:06:46.123Z,55.39
2018-09-11T03:09:14.675Z,55.83
2018-09-11T03:11:43.260Z,55.76
2018-09-11T03:14:12.268Z,55.32
2018-09-11T03:16:40.942Z,55.60
2018-09-11T03:19:09.527Z,55.42
2018-09-11T03:21:38.543Z,55.62
2018-09-11T03:24:07.212Z,55.80
2018-09-11T03:26:36.286Z,55.83
2018-09-11T03:29:05.800Z,56.04
2018-09-11T03:31:34.370Z,56.13
2018-09-11T03:34:03.040Z,56.14
2018-09-11T03:36:32.143Z,56.38
2018-09-11T03:39:00.700Z,56.69
2018-09-11T03:41:29.289Z,56.33
2018-09-11T03:43:57.847Z,56.51
2018-09-11T03:46:26.409Z,56.90
2018-09-11T03:48:55.063Z,56.38
2018-09-11T03:51:23.610Z,56.43
2018-09-11T03:53:52.174Z,56.42
2018-09-11T03:56:20.768Z,56.67
2018-09-11T03:58:49.324Z,56.54
2018-09-11T04:01:17.879Z,56.65
2018-09-11T04:03:46.599Z,56.71
2018-09-11T04:06:15.147Z,56.73
2018-09-11T04:08:43.704Z,56.66
2018-09-11T04:11:12.649Z,56.69
2018-09-11T04:13:41.211Z,57.06
2018-09-11T04:16:09.764Z,57.14
2018-09-11T04:18:38.340Z,57.31
2018-09-11T04:21:06.943Z,57.26
2018-09-11T04:23:35.490Z,57.18
2018-09-11T04:26:04.576Z,57.51
2018-09-11T04:28:33.407Z,57.42
2018-09-11T04:31:01.968Z,57.67
2018-09-11T04:33:30.826Z,57.76
2018-09-11T04:35:59.772Z,57.97
2018-09-11T04:38:28.403Z,57.81
2018-09-11T04:40:57.423Z,58.04
2018-09-11T04:43:25.982Z,58.28
2018-09-11T04:45:54.567Z,58.20
2018-09-11T04:48:23.166Z,58.20
2018-09-11T04:50:51.727Z,58.23
2018-09-11T04:53:20.305Z,58.23
2018-09-11T04:55:48.913Z,58.17
2018-09-11T04:58:17.465Z,58.30
2018-09-11T05:00:46.004Z,58.10
2018-09-11T05:03:14.923Z,58.22
2018-09-11T05:05:43.475Z,58.24
2018-09-11T05:08:12.031Z,58.31
2018-09-11T05:10:40.684Z,58.34
2018-09-11T05:13:09.525Z,58.19
2018-09-11T05:15:38.084Z,58.10
2018-09-11T05:18:06.970Z,58.31
2018-09-11T05:20:35.551Z,58.30
2018-09-11T05:23:04.159Z,58.36
2018-09-11T05:25:32.943Z,58.21
2018-09-11T05:28:01.489Z,58.37
2018-09-11T05:30:30.068Z,58.34
2018-09-11T05:32:58.739Z,58.30
2018-09-11T05:35:27.290Z,58.34
2018-09-11T05:37:55.846Z,58.21
2018-09-11T05:40:24.632Z,57.81
2018-09-11T05:42:53.183Z,57.54
2018-09-11T05:45:21.738Z,57.27
2018-09-11T05:47:50.466Z,57.00
2018-09-11T05:50:19.019Z,56.77
2018-09-11T05:52:47.587Z,56.36
2018-09-11T05:55:16.173Z,56.07
2018-09-11T05:57:44.732Z,55.52
2018-09-11T06:00:13.616Z,55.32
2018-09-11T06:02:42.284Z,54.90
2018-09-11T06:05:10.839Z,54.28
2018-09-11T06:07:39.472Z,54.01
2018-09-11T06:10:08.183Z,53.42
2018-09-11T06:12:36.728Z,53.35
2018-09-11T06:15:05.383Z,53.05
2018-09-11T06:17:33.979Z,52.72
2018-09-11T06:20:02.544Z,52.42
2018-09-11T06:22:31.099Z,51.98
2018-09-11T06:24:59.755Z,51.56
2018-09-11T06:27:28.327Z,51.07
2018-09-11T06:29:56.912Z,50.45
2018-09-11T06:32:25.715Z,50.63
2018-09-11T06:34:54.275Z,49.77
2018-09-11T06:37:22.838Z,49.19
2018-09-11T06:39:51.475Z,48.10
2018-09-11T06:42:20.031Z,47.78
2018-09-11T06:44:48.635Z,47.54
2018-09-11T06:47:17.280Z,46.47
2018-09-11T06:49:45.833Z,46.36
2018-09-11T06:52:14.392Z,45.78
2018-09-11T06:54:43.030Z,45.17
2018-09-11T06:57:11.601Z,44.04
2018-09-11T06:59:40.148Z,43.12
2018-09-11T07:02:09.052Z,42.94
2018-09-11T07:04:37.610Z,43.03
2018-09-11T07:07:06.179Z,41.95
2018-09-11T07:09:34.911Z,41.04
2018-09-11T07:12:03.490Z,40.92
2018-09-11T07:14:32.050Z,40.37
2018-09-11T07:17:00.983Z,40.29
2018-09-11T07:19:29.625Z,39.82
2018-09-11T07:21:58.312Z,39.71
2018-09-11T07:24:27.051Z,39.63
2018-09-11T07:26:55.672Z,39.85
2018-09-11T07:29:24.312Z,38.99
2018-09-11T07:31:52.955Z,39.10
2018-09-11T07:34:21.511Z,38.63
2018-09-11T07:36:50.364Z,38.04
2018-09-11T07:39:19.463Z,38.10
2018-09-11T07:41:48.064Z,37.96
2018-09-11T07:44:16.675Z,36.92
2018-09-11T07:46:45.316Z,36.21
2018-09-11T07:49:13.872Z,36.33
2018-09-11T07:51:42.424Z,36.15
2018-09-11T07:54:11.267Z,35.87
2018-09-11T07:56:39.808Z,35.10
2018-09-11T07:59:08.388Z,33.38
2018-09-11T08:01:36.963Z,33.45
2018-09-11T08:04:05.536Z,32.24
2018-09-11T08:06:34.080Z,32.16
2018-09-11T08:09:03.027Z,31.74
2018-09-11T08:11:31.591Z,31.25
2018-09-11T08:14:00.144Z,30.15
2018-09-11T08:16:28.854Z,29.78
2018-09-11T08:18:57.375Z,30.54
2018-09-11T08:21:25.924Z,30.61
2018-09-11T08:23:54.898Z,31.23
2018-09-11T08:26:23.440Z,31.63
2018-09-11T08:28:51.999Z,31.97
2018-09-11T08:31:20.699Z,32.55
2018-09-11T08:33:49.254Z,32.29
2018-09-11T08:36:17.799Z,32.92
2018-09-11T08:38:46.455Z,32.18
2018-09-11T08:41:15.015Z,32.26
2018-09-11T08:43:43.559Z,31.23
2018-09-11T08:46:12.255Z,30.86
2018-09-11T08:48:40.808Z,31.35
2018-09-11T08:51:11.508Z,31.70
2018-09-11T08:53:41.828Z,30.73
2018-09-11T08:56:10.791Z,30.53
2018-09-11T08:58:39.716Z,29.54
2018-09-11T09:01:08.590Z,29.67
2018-09-11T09:03:37.151Z,29.32
2018-09-11T09:06:05.823Z,29.15
2018-09-11T09:08:34.368Z,28.74
2018-09-11T09:11:02.913Z,28.12
2018-09-11T09:13:31.568Z,27.54
2018-09-11T09:16:00.116Z,26.32
2018-09-11T09:18:28.663Z,26.63
2018-09-11T09:20:57.263Z,26.11
2018-09-11T09:23:25.843Z,25.70
2018-09-11T09:25:54.384Z,25.26
2018-09-11T09:28:23.036Z,25.17
2018-09-11T09:30:51.763Z,24.84
2018-09-11T09:33:20.328Z,23.95
2018-09-11T09:35:48.916Z,23.04
2018-09-11T09:38:17.472Z,24.31
2018-09-11T09:40:46.039Z,23.13
2018-09-11T09:43:14.636Z,23.65
2018-09-11T09:45:43.200Z,22.21
2018-09-11T09:48:11.751Z,22.37
2018-09-11T09:50:40.717Z,22.05
2018-09-11T09:53:09.260Z,21.51
2018-09-11T09:55:37.794Z,21.21
2018-09-11T09:58:07.336Z,20.99
2018-09-11T10:00:41.155Z,21.34
2018-09-11T10:03:09.804Z,20.32
2018-09-11T10:05:38.387Z,20.35
2018-09-11T10:08:06.955Z,19.55
2018-09-11T10:10:35.616Z,18.84
2018-09-11T10:13:04.180Z,19.14
2018-09-11T10:15:32.729Z,18.75
2018-09-11T10:18:01.311Z,18.99
2018-09-11T10:20:29.873Z,18.69
2018-09-11T10:22:58.443Z,18.65
2018-09-11T10:25:27.027Z,18.63
2018-09-11T10:27:55.739Z,19.68
2018-09-11T10:30:24.723Z,19.72
2018-09-11T10:32:53.563Z,21.87
2018-09-11T10:35:22.156Z,22.99
2018-09-11T10:37:50.699Z,23.58
2018-09-11T10:40:19.320Z,22.17
2018-09-11T10:42:47.859Z,21.83
2018-09-11T10:45:16.491Z,21.15
2018-09-11T10:47:45.220Z,20.84
2018-09-11T10:50:13.773Z,20.40
2018-09-11T10:52:42.314Z,20.64
2018-09-11T10:55:10.941Z,21.04
2018-09-11T10:57:39.497Z,20.85
2018-09-11T11:00:08.080Z,20.91
2018-09-11T11:02:36.799Z,20.84
2018-09-11T11:05:05.363Z,20.88
2018-09-11T11:07:33.916Z,20.86
2018-09-11T11:10:02.756Z,20.85
2018-09-11T11:12:31.316Z,22.94
2018-09-11T11:15:06.648Z,24.03
2018-09-11T11:17:35.202Z,22.81
2018-09-11T11:20:03.755Z,22.52
2018-09-11T11:22:32.832Z,22.29
2018-09-11T11:25:01.415Z,20.65
2018-09-11T11:27:29.969Z,18.16
2018-09-11T11:29:58.786Z,16.88
2018-09-11T11:32:27.376Z,15.56
2018-09-11T11:34:55.947Z,14.82
2018-09-11T11:37:24.737Z,14.38
2018-09-11T11:39:53.195Z,13.51
2018-09-11T11:42:21.761Z,15.45
2018-09-11T11:44:50.412Z,18.05
2018-09-11T11:47:20.376Z,19.06
2018-09-11T11:49:50.112Z,19.36
2018-09-11T11:52:19.143Z,18.48
2018-09-11T11:54:47.795Z,15.75
2018-09-11T11:57:16.359Z,13.62
2018-09-11T11:59:44.896Z,13.17
2018-09-11T12:02:13.573Z,13.71
2018-09-11T12:04:42.248Z,15.75
2018-09-11T12:07:10.841Z,16.73
2018-09-11T12:09:39.411Z,18.37
2018-09-11T12:12:08.010Z,18.32
2018-09-11T12:14:36.559Z,19.47
2018-09-11T12:17:05.282Z,20.90
2018-09-11T12:19:34.036Z,20.37
2018-09-11T12:22:02.601Z,20.63
2018-09-11T12:24:31.143Z,21.61
2018-09-11T12:26:59.821Z,21.83
2018-09-11T12:29:28.373Z,22.36
2018-09-11T12:31:56.936Z,22.04
2018-09-11T12:34:25.756Z,21.87
2018-09-11T12:36:54.311Z,22.30
2018-09-11T12:39:22.871Z,23.02
2018-09-11T12:41:51.483Z,23.03
2018-09-11T12:44:20.034Z,22.76
2018-09-11T12:46:48.853Z,23.72
2018-09-11T12:49:17.455Z,23.48
2018-09-11T12:51:46.119Z,23.83
2018-09-11T12:54:14.712Z,23.47
2018-09-11T12:56:43.364Z,23.00
2018-09-11T12:59:12.020Z,23.37
2018-09-11T13:01:40.568Z,23.19
2018-09-11T13:04:09.651Z,23.18
2018-09-11T13:06:38.251Z,23.87
2018-09-11T13:09:08.042Z,23.62
2018-09-11T13:11:36.636Z,23.97
2018-09-11T13:14:05.682Z,23.91
2018-09-11T13:16:34.295Z,23.49
2018-09-11T13:19:02.981Z,23.03
2018-09-11T13:21:31.550Z,22.57
2018-09-11T13:24:00.091Z,23.03
2018-09-11T13:26:28.672Z,22.91
2018-09-11T13:28:58.132Z,23.08
2018-09-11T13:31:26.709Z,22.94
2018-09-11T13:33:55.418Z,23.01
2018-09-11T13:36:23.871Z,23.32
2018-09-11T13:38:52.500Z,23.51
2018-09-11T13:41:21.423Z,22.73
2018-09-11T13:43:50.352Z,22.64
2018-09-11T13:46:18.991Z,23.38
2018-09-11T13:48:47.538Z,22.96
2018-09-11T13:51:16.096Z,23.03
2018-09-11T13:53:44.719Z,23.13
2018-09-11T13:56:13.471Z,22.97
2018-09-11T13:58:41.988Z,22.48
2018-09-11T14:01:10.544Z,23.32
2018-09-11T14:03:39.506Z,22.46
2018-09-11T14:06:08.060Z,22.27
2018-09-11T14:08:36.616Z,22.29
2018-09-11T14:11:05.331Z,22.35
2018-09-11T14:13:33.903Z,22.61
2018-09-11T14:16:02.572Z,22.61
2018-09-11T14:18:31.183Z,23.05
2018-09-11T14:20:59.783Z,22.33
2018-09-11T14:23:28.346Z,22.90
2018-09-11T14:25:57.274Z,22.57
2018-09-11T14:28:25.831Z,23.14
2018-09-11T14:30:54.395Z,22.63
2018-09-11T14:33:23.223Z,22.91
2018-09-11T14:35:51.823Z,23.41
2018-09-11T14:38:20.380Z,22.95
2018-09-11T14:40:49.067Z,22.27
2018-09-11T14:43:17.627Z,23.23
2018-09-11T14:45:46.201Z,23.43
2018-09-11T14:48:14.986Z,22.90
2018-09-11T14:50:43.617Z,23.06
2018-09-11T14:53:12.173Z,23.39
2018-09-11T14:55:40.883Z,23.91
2018-09-11T14:58:09.428Z,22.58
2018-09-11T15:00:38.014Z,23.59
2018-09-11T15:03:07.192Z,23.84
2018-09-11T15:05:35.764Z,23.45
2018-09-11T15:08:04.312Z,23.81
2018-09-11T15:10:33.044Z,23.95
2018-09-11T15:13:01.639Z,23.22
2018-09-11T15:15:30.191Z,24.69
2018-09-11T15:17:58.888Z,24.13
2018-09-11T15:20:27.471Z,23.52
2018-09-11T15:22:56.011Z,24.40
2018-09-11T15:25:24.611Z,24.31
2018-09-11T15:27:53.172Z,23.52
2018-09-11T15:30:21.731Z,24.09
2018-09-11T15:32:50.575Z,24.16
2018-09-11T15:35:19.155Z,22.83
2018-09-11T15:37:47.703Z,23.12
2018-09-11T15:40:16.418Z,23.61
2018-09-11T15:42:44.955Z,24.21
2018-09-11T15:45:13.511Z,24.72
2018-09-11T15:47:42.079Z,24.42
2018-09-11T15:50:10.633Z,24.18
2018-09-11T15:52:39.196Z,23.92
2018-09-11T15:55:07.891Z,24.86
2018-09-11T15:57:36.459Z,23.90
2018-09-11T16:00:05.048Z,24.59
2018-09-11T16:02:33.627Z,24.87
2018-09-11T16:05:02.189Z,24.62
2018-09-11T16:07:30.732Z,24.63
2018-09-11T16:09:59.334Z,24.29
2018-09-11T16:12:27.877Z,24.07
2018-09-11T16:14:56.462Z,24.75
2018-09-11T16:17:25.028Z,24.11
2018-09-11T16:19:53.588Z,24.41
2018-09-11T16:22:22.140Z,23.34
2018-09-11T16:24:51.412Z,24.10
2018-09-11T16:27:19.960Z,24.04
2018-09-11T16:29:48.575Z,24.70
2018-09-11T16:32:17.104Z,24.33
2018-09-11T16:34:45.675Z,25.11
2018-09-11T16:37:14.240Z,24.96
2018-09-11T16:39:43.852Z,25.03
2018-09-11T16:42:12.412Z,24.70
2018-09-11T16:44:40.960Z,24.81
2018-09-11T16:47:09.894Z,25.13
2018-09-11T16:49:44.815Z,25.51
2018-09-11T16:52:13.412Z,25.50
2018-09-11T16:54:42.045Z,26.08
2018-09-11T16:57:10.604Z,26.42
2018-09-11T16:59:39.276Z,26.85
2018-09-11T17:02:08.024Z,26.33
2018-09-11T17:04:37.004Z,26.99
2018-09-11T17:07:05.828Z,27.26
2018-09-11T17:09:34.383Z,27.39
2018-09-11T17:12:02.927Z,26.76
2018-09-11T17:14:31.503Z,28.26
2018-09-11T17:17:00.096Z,27.44
2018-09-11T17:19:28.660Z,27.53
2018-09-11T17:21:57.295Z,27.59
2018-09-11T17:24:25.847Z,28.11
2018-09-11T17:26:54.435Z,28.38
2018-09-11T17:29:23.132Z,28.45
2018-09-11T17:31:51.680Z,28.42
2018-09-11T17:34:20.309Z,28.76
2018-09-11T17:36:49.017Z,28.94
2018-09-11T17:39:17.596Z,29.34
2018-09-11T17:41:46.143Z,29.26
2018-09-11T17:44:14.727Z,29.19
2018-09-11T17:46:43.702Z,30.15
2018-09-11T17:49:12.331Z,31.28
2018-09-11T17:51:40.903Z,31.24
2018-09-11T17:54:09.489Z,31.22
2018-09-11T17:56:38.108Z,31.59
2018-09-11T17:59:07.085Z,31.96
2018-09-11T18:01:35.651Z,31.61
2018-09-11T18:04:04.232Z,31.99
2018-09-11T18:06:32.919Z,31.27
2018-09-11T18:09:01.484Z,32.16
2018-09-11T18:11:30.045Z,32.76
2018-09-11T18:13:58.736Z,32.75
2018-09-11T18:16:27.299Z,32.67
2018-09-11T18:18:55.864Z,32.79
2018-09-11T18:21:24.531Z,32.80
2018-09-11T18:23:53.188Z,32.64
2018-09-11T18:26:21.760Z,32.97
2018-09-11T18:28:50.494Z,33.25
2018-09-11T18:31:19.076Z,33.83
2018-09-11T18:33:47.782Z,33.41
2018-09-11T18:36:16.532Z,34.77
2018-09-11T18:38:45.111Z,34.57
2018-09-11T18:41:14.167Z,35.46
2018-09-11T18:43:42.951Z,35.65
2018-09-11T18:46:11.512Z,36.09
2018-09-11T18:48:40.072Z,36.62
2018-09-11T18:51:08.672Z,36.44
2018-09-11T18:53:37.239Z,37.04
2018-09-11T18:56:05.795Z,38.01
2018-09-11T18:58:34.455Z,37.94
2018-09-11T19:01:03.028Z,37.74
2018-09-11T19:03:31.575Z,38.16
2018-09-11T19:06:00.255Z,38.20
2018-09-11T19:08:28.808Z,38.73
2018-09-11T19:10:57.378Z,38.60
2018-09-11T19:13:26.067Z,38.90
2018-09-11T19:15:54.683Z,38.76
2018-09-11T19:18:23.323Z,39.25
2018-09-11T19:20:51.999Z,39.22
2018-09-11T19:23:20.564Z,38.81
2018-09-11T19:25:49.136Z,39.46
2018-09-11T19:28:17.817Z,38.87
2018-09-11T19:30:46.376Z,39.56
2018-09-11T19:33:14.940Z,39.05
2018-09-11T19:35:43.691Z,39.24
2018-09-11T19:38:12.244Z,39.88
2018-09-11T19:40:40.813Z,39.52
2018-09-11T19:43:09.399Z,40.11
2018-09-11T19:45:37.980Z,39.33
2018-09-11T19:48:06.699Z,40.25
2018-09-11T19:50:35.420Z,39.73
2018-09-11T19:53:03.972Z,39.79
2018-09-11T19:55:32.520Z,40.15
2018-09-11T19:58:01.188Z,40.08
2018-09-11T20:00:29.744Z,40.28
2018-09-11T20:02:58.307Z,40.86
2018-09-11T20:05:26.971Z,41.37
2018-09-11T20:07:55.614Z,40.92
2018-09-11T20:10:24.182Z,41.63
2018-09-11T20:12:52.822Z,41.61
2018-09-11T20:15:21.390Z,41.34
2018-09-11T20:17:49.968Z,41.70
2018-09-11T20:20:18.552Z,42.54
2018-09-11T20:22:47.103Z,42.47
2018-09-11T20:25:15.814Z,42.44
2018-09-11T20:27:44.443Z,42.54
2018-09-11T20:30:13.032Z,43.10
2018-09-11T20:32:41.667Z,43.36
2018-09-11T20:35:10.524Z,43.46
2018-09-11T20:37:39.171Z,43.61
2018-09-11T20:40:07.772Z,43.92
2018-09-11T20:42:36.823Z,44.44
2018-09-11T20:45:05.442Z,44.04
2018-09-11T20:47:34.019Z,44.08
2018-09-11T20:50:02.876Z,44.55
2018-09-11T20:52:31.450Z,45.46
2018-09-11T20:55:00.008Z,45.63
2018-09-11T20:57:28.579Z,44.97
2018-09-11T20:59:57.131Z,45.18
2018-09-11T21:02:25.690Z,45.31
2018-09-11T21:04:54.371Z,45.59
2018-09-11T21:07:22.935Z,45.01
2018-09-11T21:09:51.486Z,45.42
2018-09-11T21:12:20.339Z,45.61
2018-09-11T21:14:48.909Z,45.34
2018-09-11T21:17:17.465Z,46.06
2018-09-11T21:19:46.166Z,46.79
2018-09-11T21:22:14.723Z,46.72
2018-09-11T21:24:43.279Z,47.31
2018-09-11T21:27:11.953Z,47.08
2018-09-11T21:29:40.508Z,47.03
2018-09-11T21:32:09.064Z,46.85
2018-09-11T21:34:38.022Z,47.67
2018-09-11T21:37:06.748Z,47.28
2018-09-11T21:39:35.289Z,47.40
2018-09-11T21:42:04.271Z,47.64
2018-09-11T21:44:32.851Z,48.00
2018-09-11T21:47:01.395Z,47.93
2018-09-11T21:49:30.036Z,48.57
2018-09-11T21:54:32.832Z,48.74
2018-09-11T21:57:01.395Z,48.18
2018-09-11T21:59:29.963Z,48.38
2018-09-11T22:02:02.288Z,49.00
2018-09-11T22:04:31.503Z,49.23
2018-09-11T22:07:00.051Z,49.66
2018-09-11T22:09:28.931Z,48.66
2018-09-11T22:11:57.547Z,49.21
2018-09-11T22:14:26.055Z,49.28
2018-09-11T22:16:54.741Z,49.79
2018-09-11T22:19:23.291Z,49.58
2018-09-11T22:21:51.874Z,49.85
2018-09-11T22:24:20.480Z,50.25
2018-09-11T22:26:49.028Z,49.94
2018-09-11T22:29:17.575Z,49.99
2018-09-11T22:31:46.247Z,50.07
2018-09-11T22:34:14.792Z,50.22
2018-09-11T22:36:43.391Z,50.69
2018-09-11T22:39:12.355Z,51.22
2018-09-11T22:41:40.972Z,51.63
2018-09-11T22:44:09.476Z,51.73
2018-09-11T22:46:38.191Z,51.92
2018-09-11T22:49:06.756Z,51.69
2018-09-11T22:51:35.308Z,52.11
2018-09-11T22:54:04.005Z,51.48
2018-09-11T22:56:32.546Z,52.16
2018-09-11T22:59:01.095Z,51.68
2018-09-11T23:01:29.824Z,52.13
2018-09-11T23:03:58.368Z,52.10
2018-09-11T23:06:26.920Z,52.07
2018-09-11T23:08:55.585Z,52.32
2018-09-11T23:11:24.123Z,52.34
2018-09-11T23:13:52.752Z,52.81
2018-09-11T23:16:21.767Z,52.22
2018-09-11T23:18:50.330Z,52.38
2018-09-11T23:21:18.891Z,52.73
2018-09-11T23:23:47.553Z,52.46
2018-09-11T23:26:16.175Z,52.50
2018-09-11T23:28:44.736Z,53.16
2018-09-11T23:31:13.395Z,53.21
2018-09-11T23:33:41.979Z,52.83
2018-09-11T23:36:10.552Z,53.21
2018-09-11T23:38:39.164Z,52.97
2018-09-11T23:41:08.026Z,52.85
2018-09-11T23:43:36.587Z,52.93
2018-09-11T23:46:05.463Z,53.35
2018-09-11T23:48:34.014Z,53.14
2018-09-11T23:51:02.563Z,53.23
2018-09-11T23:53:31.152Z,53.14
2018-09-11T23:55:59.745Z,53.31
2018-09-11T23:58:28.304Z,52.89
